sensor_id;sensor_type;location;lat;lon;timestamp;pressure;altitude;pressure_sealevel;temperature;humidity
55217;BME280;41086;46.736;15.666;2023-01-16T00:01:27;97776.00;;;3.69;100.00
55217;BME280;41086;46.736;15.666;2023-01-16T00:03:54;97775.78;;;3.73;100.00
55217;BME280;41086;46.736;15.666;2023-01-16T00:06:21;97760.16;;;3.54;100.00
55217;BME280;41086;46.736;15.666;2023-01-16T00:08:48;97767.47;;;3.65;100.00
55217;BME280;41086;46.736;15.666;2023-01-16T00:11:15;97772.88;;;3.62;100.00
55217;BME280;41086;46.736;15.666;2023-01-16T00:13:42;97772.72;;;3.65;100.00
55217;BME280;41086;46.736;15.666;2023-01-16T00:16:09;97755.69;;;3.57;100.00
55217;BME280;41086;46.736;15.666;2023-01-16T00:18:36;97757.47;;;3.56;100.00
55217;BME280;41086;46.736;15.666;2023-01-16T00:21:03;97773.47;;;3.67;100.00
55217;BME280;41086;46.736;15.666;2023-01-16T00:23:29;97762.91;;;3.69;100.00
55217;BME280;41086;46.736;15.666;2023-01-16T00:25:56;97772.91;;;3.78;100.00
55217;BME280;41086;46.736;15.666;2023-01-16T00:28:23;97763.78;;;3.69;100.00
55217;BME280;41086;46.736;15.666;2023-01-16T00:30:50;97771.63;;;3.69;100.00
55217;BME280;41086;46.736;15.666;2023-01-16T00:33:17;97742.16;;;3.48;100.00
55217;BME280;41086;46.736;15.666;2023-01-16T00:35:45;97761.28;;;3.66;100.00
55217;BME280;41086;46.736;15.666;2023-01-16T00:38:12;97768.06;;;3.70;100.00
55217;BME280;41086;46.736;15.666;2023-01-16T00:40:39;97765.47;;;3.70;100.00
55217;BME280;41086;46.736;15.666;2023-01-16T00:43:06;97771.63;;;3.69;100.00
55217;BME280;41086;46.736;15.666;2023-01-16T00:45:33;97776.00;;;3.69;100.00
55217;BME280;41086;46.736;15.666;2023-01-16T00:48:00;97765.69;;;3.66;100.00
55217;BME280;41086;46.736;15.666;2023-01-16T00:50:27;97742.91;;;3.50;100.00
55217;BME280;41086;46.736;15.666;2023-01-16T00:52:54;97758.31;;;3.57;100.00
55217;BME280;41086;46.736;15.666;2023-01-16T00:55:20;97765.16;;;3.59;100.00
55217;BME280;41086;46.736;15.666;2023-01-16T00:57:47;97774.09;;;3.55;100.00
55217;BME280;41086;46.736;15.666;2023-01-16T01:00:15;97759.16;;;3.57;100.00
55217;BME280;41086;46.736;15.666;2023-01-16T01:02:44;97760.59;;;3.63;100.00
55217;BME280;41086;46.736;15.666;2023-01-16T01:05:11;97759.84;;;3.61;100.00
55217;BME280;41086;46.736;15.666;2023-01-16T01:07:37;97739.59;;;3.47;100.00
55217;BME280;41086;46.736;15.666;2023-01-16T01:10:04;97739.69;;;3.45;100.00
55217;BME280;41086;46.736;15.666;2023-01-16T01:12:31;97754.69;;;3.42;100.00
55217;BME280;41086;46.736;15.666;2023-01-16T01:14:58;97751.06;;;3.44;100.00
55217;BME280;41086;46.736;15.666;2023-01-16T01:17:24;97750.06;;;3.47;100.00
55217;BME280;41086;46.736;15.666;2023-01-16T01:19:51;97741.53;;;3.43;100.00
55217;BME280;41086;46.736;15.666;2023-01-16T01:22:18;97751.16;;;3.43;100.00
55217;BME280;41086;46.736;15.666;2023-01-16T01:24:48;97759.56;;;3.32;100.00
55217;BME280;41086;46.736;15.666;2023-01-16T01:27:16;97761.50;;;3.28;100.00
55217;BME280;41086;46.736;15.666;2023-01-16T01:29:43;97750.88;;;3.31;100.00
55217;BME280;41086;46.736;15.666;2023-01-16T01:32:10;97763.03;;;3.32;100.00
55217;BME280;41086;46.736;15.666;2023-01-16T01:34:37;97764.19;;;3.27;100.00
55217;BME280;41086;46.736;15.666;2023-01-16T01:37:06;97764.88;;;3.30;100.00
55217;BME280;41086;46.736;15.666;2023-01-16T01:39:33;97756.28;;;3.28;100.00
55217;BME280;41086;46.736;15.666;2023-01-16T01:42:00;97753.66;;;3.28;100.00
55217;BME280;41086;46.736;15.666;2023-01-16T01:44:55;97748.63;;;3.24;100.00
55217;BME280;41086;46.736;15.666;2023-01-16T01:47:29;97729.00;;;3.15;100.00
55217;BME280;41086;46.736;15.666;2023-01-16T01:49:59;97720.16;;;3.00;100.00
55217;BME280;41086;46.736;15.666;2023-01-16T01:52:29;97722.97;;;2.96;100.00
55217;BME280;41086;46.736;15.666;2023-01-16T01:55:02;97716.91;;;2.95;100.00
55217;BME280;41086;46.736;15.666;2023-01-16T01:57:36;97721.22;;;2.96;100.00
55217;BME280;41086;46.736;15.666;2023-01-16T02:00:09;97705.19;;;2.85;100.00
55217;BME280;41086;46.736;15.666;2023-01-16T02:02:43;97708.66;;;2.68;100.00
55217;BME280;41086;46.736;15.666;2023-01-16T02:05:12;97730.91;;;2.77;100.00
55217;BME280;41086;46.736;15.666;2023-01-16T02:07:42;97715.66;;;2.67;100.00
55217;BME280;41086;46.736;15.666;2023-01-16T02:10:29;97714.66;;;2.70;100.00
55217;BME280;41086;46.736;15.666;2023-01-16T02:12:57;97692.78;;;2.54;100.00
55217;BME280;41086;46.736;15.666;2023-01-16T02:15:25;97700.00;;;2.49;100.00
55217;BME280;41086;46.736;15.666;2023-01-16T02:17:51;97691.31;;;2.48;100.00
55217;BME280;41086;46.736;15.666;2023-01-16T02:21:07;97691.47;;;2.45;100.00
55217;BME280;41086;46.736;15.666;2023-01-16T02:23:52;97688.97;;;2.25;100.00
55217;BME280;41086;46.736;15.666;2023-01-16T02:29:19;97663.81;;;2.03;100.00
55217;BME280;41086;46.736;15.666;2023-01-16T02:34:54;97665.31;;;2.09;100.00
55217;BME280;41086;46.736;15.666;2023-01-16T02:45:48;97657.88;;;1.63;100.00
55217;BME280;41086;46.736;15.666;2023-01-16T02:53:29;97651.94;;;1.20;100.00
55217;BME280;41086;46.736;15.666;2023-01-16T02:55:59;97659.41;;;1.09;100.00
55217;BME280;41086;46.736;15.666;2023-01-16T02:58:31;97646.22;;;0.92;100.00
55217;BME280;41086;46.736;15.666;2023-01-16T03:01:00;97643.75;;;0.88;100.00
55217;BME280;41086;46.736;15.666;2023-01-16T03:06:24;97646.38;;;0.88;100.00
55217;BME280;41086;46.736;15.666;2023-01-16T03:11:57;97628.50;;;0.38;100.00
55217;BME280;41086;46.736;15.666;2023-01-16T03:20:23;97608.31;;;0.21;100.00
55217;BME280;41086;46.736;15.666;2023-01-16T03:23:07;97612.94;;;0.15;100.00
55217;BME280;41086;46.736;15.666;2023-01-16T03:30:49;97590.47;;;-0.10;100.00
55217;BME280;41086;46.736;15.666;2023-01-16T03:35:58;97579.41;;;-0.15;100.00
55217;BME280;41086;46.736;15.666;2023-01-16T03:38:27;97551.88;;;-0.22;100.00
55217;BME280;41086;46.736;15.666;2023-01-16T03:40:56;97566.06;;;-0.07;100.00
55217;BME280;41086;46.736;15.666;2023-01-16T03:43:30;97569.94;;;0.05;100.00
55217;BME280;41086;46.736;15.666;2023-01-16T03:49:08;97552.91;;;-0.04;100.00
55217;BME280;41086;46.736;15.666;2023-01-16T03:51:42;97550.16;;;-0.21;100.00
55217;BME280;41086;46.736;15.666;2023-01-16T03:59:35;97517.28;;;-0.04;100.00
55217;BME280;41086;46.736;15.666;2023-01-16T04:02:06;97530.84;;;0.05;100.00
55217;BME280;41086;46.736;15.666;2023-01-16T04:04:43;97533.66;;;0.00;100.00
55217;BME280;41086;46.736;15.666;2023-01-16T04:07:29;97522.59;;;-0.05;100.00
55217;BME280;41086;46.736;15.666;2023-01-16T04:10:07;97544.63;;;0.08;100.00
55217;BME280;41086;46.736;15.666;2023-01-16T04:12:41;97528.19;;;0.06;100.00
55217;BME280;41086;46.736;15.666;2023-01-16T04:15:10;97531.59;;;0.08;100.00
55217;BME280;41086;46.736;15.666;2023-01-16T04:17:38;97518.59;;;0.07;100.00
55217;BME280;41086;46.736;15.666;2023-01-16T04:20:07;97516.94;;;0.06;100.00
55217;BME280;41086;46.736;15.666;2023-01-16T04:22:35;97520.50;;;0.03;100.00
55217;BME280;41086;46.736;15.666;2023-01-16T04:25:03;97534.72;;;0.16;100.00
55217;BME280;41086;46.736;15.666;2023-01-16T04:27:32;97534.13;;;0.10;100.00
55217;BME280;41086;46.736;15.666;2023-01-16T04:29:59;97524.47;;;0.12;100.00
55217;BME280;41086;46.736;15.666;2023-01-16T04:32:26;97526.25;;;0.11;100.00
55217;BME280;41086;46.736;15.666;2023-01-16T04:34:52;97522.75;;;0.11;100.00
55217;BME280;41086;46.736;15.666;2023-01-16T04:37:19;97521.47;;;0.01;100.00
55217;BME280;41086;46.736;15.666;2023-01-16T04:39:47;97521.72;;;-0.06;100.00
55217;BME280;41086;46.736;15.666;2023-01-16T04:42:15;97504.25;;;-0.24;100.00
55217;BME280;41086;46.736;15.666;2023-01-16T04:44:42;97506.25;;;-0.31;100.00
55217;BME280;41086;46.736;15.666;2023-01-16T04:47:09;97524.47;;;-0.31;100.00
55217;BME280;41086;46.736;15.666;2023-01-16T04:49:36;97503.28;;;-0.43;100.00
55217;BME280;41086;46.736;15.666;2023-01-16T04:52:03;97504.06;;;-0.41;100.00
55217;BME280;41086;46.736;15.666;2023-01-16T04:54:30;97485.00;;;-0.42;100.00
55217;BME280;41086;46.736;15.666;2023-01-16T04:56:57;97461.09;;;-0.52;100.00
55217;BME280;41086;46.736;15.666;2023-01-16T04:59:24;97451.72;;;-0.56;100.00
55217;BME280;41086;46.736;15.666;2023-01-16T05:01:50;97460.25;;;-0.52;100.00
55217;BME280;41086;46.736;15.666;2023-01-16T05:04:18;97440.75;;;-0.62;100.00
55217;BME280;41086;46.736;15.666;2023-01-16T05:06:46;97449.91;;;-0.54;100.00
55217;BME280;41086;46.736;15.666;2023-01-16T05:09:14;97450.75;;;-0.53;100.00
55217;BME280;41086;46.736;15.666;2023-01-16T05:11:41;97428.56;;;-0.62;100.00
55217;BME280;41086;46.736;15.666;2023-01-16T05:17:26;97416.53;;;-0.64;100.00
55217;BME280;41086;46.736;15.666;2023-01-16T05:19:55;97414.38;;;-0.55;100.00
55217;BME280;41086;46.736;15.666;2023-01-16T05:22:22;97413.63;;;-0.57;100.00
55217;BME280;41086;46.736;15.666;2023-01-16T05:24:49;97404.75;;;-0.53;100.00
55217;BME280;41086;46.736;15.666;2023-01-16T05:27:15;97396.91;;;-0.51;100.00
55217;BME280;41086;46.736;15.666;2023-01-16T05:29:42;97386.34;;;-0.48;100.00
55217;BME280;41086;46.736;15.666;2023-01-16T05:32:09;97398.66;;;-0.31;100.00
55217;BME280;41086;46.736;15.666;2023-01-16T05:34:36;97392.44;;;-0.27;100.00
55217;BME280;41086;46.736;15.666;2023-01-16T05:37:03;97396.06;;;-0.31;100.00
55217;BME280;41086;46.736;15.666;2023-01-16T05:39:29;97375.88;;;-0.47;100.00
55217;BME280;41086;46.736;15.666;2023-01-16T05:41:56;97411.53;;;-0.28;100.00
55217;BME280;41086;46.736;15.666;2023-01-16T05:44:23;97402.41;;;-0.38;100.00
55217;BME280;41086;46.736;15.666;2023-01-16T05:46:50;97391.56;;;-0.48;100.00
55217;BME280;41086;46.736;15.666;2023-01-16T05:49:17;97409.34;;;-0.37;100.00
55217;BME280;41086;46.736;15.666;2023-01-16T05:51:44;97404.03;;;-0.36;100.00
55217;BME280;41086;46.736;15.666;2023-01-16T05:54:11;97404.84;;;-0.34;100.00
55217;BME280;41086;46.736;15.666;2023-01-16T05:56:38;97392.25;;;-0.45;100.00
55217;BME280;41086;46.736;15.666;2023-01-16T05:59:05;97378.72;;;-0.53;100.00
55217;BME280;41086;46.736;15.666;2023-01-16T06:01:32;97379.44;;;-0.49;100.00
55217;BME280;41086;46.736;15.666;2023-01-16T06:03:59;97385.38;;;-0.46;100.00
55217;BME280;41086;46.736;15.666;2023-01-16T06:06:26;97381.94;;;-0.46;100.00
55217;BME280;41086;46.736;15.666;2023-01-16T06:08:52;97374.03;;;-0.45;100.00
55217;BME280;41086;46.736;15.666;2023-01-16T06:11:19;97372.41;;;-0.47;100.00
55217;BME280;41086;46.736;15.666;2023-01-16T06:13:46;97368.63;;;-0.60;100.00
55217;BME280;41086;46.736;15.666;2023-01-16T06:16:14;97367.66;;;-0.58;100.00
55217;BME280;41086;46.736;15.666;2023-01-16T06:18:41;97341.09;;;-0.66;100.00
55217;BME280;41086;46.736;15.666;2023-01-16T06:21:07;97356.88;;;-0.49;100.00
55217;BME280;41086;46.736;15.666;2023-01-16T06:23:34;97349.13;;;-0.50;100.00
55217;BME280;41086;46.736;15.666;2023-01-16T06:26:01;97354.06;;;-0.44;100.00
55217;BME280;41086;46.736;15.666;2023-01-16T06:28:29;97356.09;;;-0.51;100.00
55217;BME280;41086;46.736;15.666;2023-01-16T06:30:56;97364.78;;;-0.52;100.00
55217;BME280;41086;46.736;15.666;2023-01-16T06:33:23;97348.94;;;-0.46;100.00
55217;BME280;41086;46.736;15.666;2023-01-16T06:35:50;97337.88;;;-0.51;100.00
55217;BME280;41086;46.736;15.666;2023-01-16T06:38:17;97326.63;;;-0.51;100.00
55217;BME280;41086;46.736;15.666;2023-01-16T06:40:44;97330.91;;;-0.50;100.00
55217;BME280;41086;46.736;15.666;2023-01-16T06:43:11;97318.72;;;-0.50;100.00
55217;BME280;41086;46.736;15.666;2023-01-16T06:45:38;97326.34;;;-0.45;100.00
55217;BME280;41086;46.736;15.666;2023-01-16T06:48:05;97309.25;;;-0.51;100.00
55217;BME280;41086;46.736;15.666;2023-01-16T06:50:32;97296.38;;;-0.54;100.00
55217;BME280;41086;46.736;15.666;2023-01-16T06:52:59;97292.66;;;-0.48;100.00
55217;BME280;41086;46.736;15.666;2023-01-16T06:55:26;97283.66;;;-0.41;100.00
55217;BME280;41086;46.736;15.666;2023-01-16T06:57:52;97280.16;;;-0.40;100.00
55217;BME280;41086;46.736;15.666;2023-01-16T07:00:19;97278.25;;;-0.36;100.00
55217;BME280;41086;46.736;15.666;2023-01-16T07:02:54;97277.22;;;-0.32;100.00
55217;BME280;41086;46.736;15.666;2023-01-16T07:05:22;97249.31;;;-0.30;100.00
55217;BME280;41086;46.736;15.666;2023-01-16T07:07:50;97249.44;;;-0.13;100.00
55217;BME280;41086;46.736;15.666;2023-01-16T07:10:18;97241.03;;;-0.19;100.00
55217;BME280;41086;46.736;15.666;2023-01-16T07:12:49;97243.44;;;-0.15;100.00
55217;BME280;41086;46.736;15.666;2023-01-16T07:15:16;97235.28;;;-0.07;100.00
55217;BME280;41086;46.736;15.666;2023-01-16T07:18:02;97211.16;;;-0.11;100.00
55217;BME280;41086;46.736;15.666;2023-01-16T07:20:53;97231.50;;;0.00;100.00
55217;BME280;41086;46.736;15.666;2023-01-16T07:23:43;97193.28;;;-0.18;100.00
55217;BME280;41086;46.736;15.666;2023-01-16T07:26:11;97215.97;;;-0.03;100.00
55217;BME280;41086;46.736;15.666;2023-01-16T07:28:40;97205.16;;;-0.13;100.00
55217;BME280;41086;46.736;15.666;2023-01-16T07:31:07;97216.13;;;-0.06;100.00
55217;BME280;41086;46.736;15.666;2023-01-16T07:33:34;97216.91;;;-0.04;100.00
55217;BME280;41086;46.736;15.666;2023-01-16T07:36:01;97210.91;;;-0.06;100.00
55217;BME280;41086;46.736;15.666;2023-01-16T07:38:28;97219.16;;;0.04;100.00
55217;BME280;41086;46.736;15.666;2023-01-16T07:40:55;97205.63;;;0.14;100.00
55217;BME280;41086;46.736;15.666;2023-01-16T07:43:22;97213.59;;;0.11;100.00
55217;BME280;41086;46.736;15.666;2023-01-16T07:45:48;97211.06;;;0.10;100.00
55217;BME280;41086;46.736;15.666;2023-01-16T07:48:20;97227.81;;;0.23;100.00
55217;BME280;41086;46.736;15.666;2023-01-16T07:50:55;97217.41;;;0.40;100.00
55217;BME280;41086;46.736;15.666;2023-01-16T07:53:26;97207.06;;;0.39;100.00
55217;BME280;41086;46.736;15.666;2023-01-16T07:55:55;97199.03;;;0.43;100.00
55217;BME280;41086;46.736;15.666;2023-01-16T07:58:22;97206.25;;;0.38;100.00
55217;BME280;41086;46.736;15.666;2023-01-16T08:00:51;97207.56;;;0.47;100.00
55217;BME280;41086;46.736;15.666;2023-01-16T08:03:19;97211.66;;;0.34;100.00
55217;BME280;41086;46.736;15.666;2023-01-16T08:05:46;97187.75;;;0.07;100.00
55217;BME280;41086;46.736;15.666;2023-01-16T08:08:13;97181.06;;;0.01;100.00
55217;BME280;41086;46.736;15.666;2023-01-16T08:10:40;97192.03;;;0.08;100.00
55217;BME280;41086;46.736;15.666;2023-01-16T08:13:07;97187.75;;;0.07;100.00
55217;BME280;41086;46.736;15.666;2023-01-16T08:15:34;97175.91;;;0.18;100.00
55217;BME280;41086;46.736;15.666;2023-01-16T08:18:01;97137.41;;;0.06;100.00
55217;BME280;41086;46.736;15.666;2023-01-16T08:20:28;97147.66;;;0.28;100.00
55217;BME280;41086;46.736;15.666;2023-01-16T08:22:55;97145.00;;;0.47;100.00
55217;BME280;41086;46.736;15.666;2023-01-16T08:25:24;97112.63;;;0.34;100.00
55217;BME280;41086;46.736;15.666;2023-01-16T08:27:51;97112.41;;;0.56;100.00
55217;BME280;41086;46.736;15.666;2023-01-16T08:30:18;97123.22;;;0.65;100.00
55217;BME280;41086;46.736;15.666;2023-01-16T08:32:45;97118.38;;;0.75;100.00
55217;BME280;41086;46.736;15.666;2023-01-16T08:35:12;97132.56;;;0.70;100.00
55217;BME280;41086;46.736;15.666;2023-01-16T08:37:47;97136.78;;;0.55;100.00
55217;BME280;41086;46.736;15.666;2023-01-16T08:40:15;97131.56;;;0.37;100.00
55217;BME280;41086;46.736;15.666;2023-01-16T08:42:42;97113.56;;;0.33;100.00
55217;BME280;41086;46.736;15.666;2023-01-16T08:45:28;97089.16;;;0.34;100.00
55217;BME280;41086;46.736;15.666;2023-01-16T08:48:21;97101.13;;;0.38;100.00
55217;BME280;41086;46.736;15.666;2023-01-16T08:51:17;97106.09;;;0.42;100.00
55217;BME280;41086;46.736;15.666;2023-01-16T08:53:53;97097.28;;;0.45;100.00
55217;BME280;41086;46.736;15.666;2023-01-16T08:56:21;97058.03;;;0.13;100.00
55217;BME280;41086;46.736;15.666;2023-01-16T08:58:48;97081.03;;;0.40;100.00
55217;BME280;41086;46.736;15.666;2023-01-16T09:01:15;97091.31;;;0.43;100.00
55217;BME280;41086;46.736;15.666;2023-01-16T09:03:45;97097.38;;;0.43;100.00
55217;BME280;41086;46.736;15.666;2023-01-16T09:06:12;97077.22;;;0.47;100.00
55217;BME280;41086;46.736;15.666;2023-01-16T09:08:39;97088.63;;;0.62;100.00
55217;BME280;41086;46.736;15.666;2023-01-16T09:11:06;97108.47;;;0.64;100.00
55217;BME280;41086;46.736;15.666;2023-01-16T09:13:51;97008.94;;;0.06;100.00
55217;BME280;41086;46.736;15.666;2023-01-16T09:16:21;97080.28;;;0.55;100.00
55217;BME280;41086;46.736;15.666;2023-01-16T09:18:51;97087.25;;;0.55;100.00
55217;BME280;41086;46.736;15.666;2023-01-16T09:21:19;97059.75;;;0.49;100.00
55217;BME280;41086;46.736;15.666;2023-01-16T09:23:46;96997.81;;;0.19;100.00
55217;BME280;41086;46.736;15.666;2023-01-16T09:26:13;97052.34;;;0.75;100.00
55217;BME280;41086;46.736;15.666;2023-01-16T09:28:40;97078.63;;;0.87;100.00
55217;BME280;41086;46.736;15.666;2023-01-16T09:31:07;97077.91;;;0.84;100.00
55217;BME280;41086;46.736;15.666;2023-01-16T09:33:34;97076.63;;;0.75;100.00
55217;BME280;41086;46.736;15.666;2023-01-16T09:36:01;97037.63;;;0.56;100.00
55217;BME280;41086;46.736;15.666;2023-01-16T09:38:28;97018.53;;;0.56;100.00
55217;BME280;41086;46.736;15.666;2023-01-16T09:40:57;97045.66;;;0.69;100.00
55217;BME280;41086;46.736;15.666;2023-01-16T09:43:40;97029.84;;;0.39;100.00
55217;BME280;41086;46.736;15.666;2023-01-16T09:46:22;97024.25;;;0.29;100.00
55217;BME280;41086;46.736;15.666;2023-01-16T09:48:54;97020.56;;;0.33;100.00
55217;BME280;41086;46.736;15.666;2023-01-16T09:51:32;97016.88;;;0.37;100.00
55217;BME280;41086;46.736;15.666;2023-01-16T09:54:09;96998.19;;;0.29;100.00
55217;BME280;41086;46.736;15.666;2023-01-16T09:56:59;97002.63;;;0.44;100.00
55217;BME280;41086;46.736;15.666;2023-01-16T09:59:48;96999.78;;;0.49;100.00
55217;BME280;41086;46.736;15.666;2023-01-16T10:02:23;96983.31;;;0.64;100.00
55217;BME280;41086;46.736;15.666;2023-01-16T10:04:52;96972.50;;;0.72;100.00
55217;BME280;41086;46.736;15.666;2023-01-16T10:10:32;96970.06;;;1.17;100.00
55217;BME280;41086;46.736;15.666;2023-01-16T10:16:26;96983.88;;;1.03;100.00
55217;BME280;41086;46.736;15.666;2023-01-16T10:19:17;96981.63;;;0.97;100.00
55217;BME280;41086;46.736;15.666;2023-01-16T10:25:24;96930.75;;;0.56;100.00
55217;BME280;41086;46.736;15.666;2023-01-16T10:30:39;96920.16;;;0.75;100.00
55217;BME280;41086;46.736;15.666;2023-01-16T10:33:22;96877.44;;;0.62;100.00
55217;BME280;41086;46.736;15.666;2023-01-16T10:35:53;96909.50;;;0.80;100.00
55217;BME280;41086;46.736;15.666;2023-01-16T10:38:43;96885.09;;;0.65;100.00
55217;BME280;41086;46.736;15.666;2023-01-16T10:41:33;96888.63;;;0.80;100.00
55217;BME280;41086;46.736;15.666;2023-01-16T10:47:15;96865.22;;;0.62;100.00
55217;BME280;41086;46.736;15.666;2023-01-16T10:50:01;96836.75;;;0.43;100.00
55217;BME280;41086;46.736;15.666;2023-01-16T10:52:28;96844.06;;;0.53;100.00
55217;BME280;41086;46.736;15.666;2023-01-16T10:54:56;96817.53;;;0.29;100.00
55217;BME280;41086;46.736;15.666;2023-01-16T10:57:25;96846.63;;;0.37;100.00
55217;BME280;41086;46.736;15.666;2023-01-16T10:59:53;96833.53;;;0.38;100.00
55217;BME280;41086;46.736;15.666;2023-01-16T11:02:29;96825.38;;;0.44;100.00
55217;BME280;41086;46.736;15.666;2023-01-16T11:04:57;96795.13;;;0.42;100.00
55217;BME280;41086;46.736;15.666;2023-01-16T11:07:28;96794.88;;;0.47;100.00
55217;BME280;41086;46.736;15.666;2023-01-16T11:09:55;96786.88;;;0.50;100.00
55217;BME280;41086;46.736;15.666;2023-01-16T11:12:26;96790.97;;;0.70;100.00
55217;BME280;41086;46.736;15.666;2023-01-16T11:15:23;96776.09;;;0.56;100.00
55217;BME280;41086;46.736;15.666;2023-01-16T11:21:01;96776.97;;;1.17;100.00
55217;BME280;41086;46.736;15.666;2023-01-16T11:23:37;96785.97;;;1.27;100.00
55217;BME280;41086;46.736;15.666;2023-01-16T11:26:04;96771.06;;;1.29;100.00
55217;BME280;41086;46.736;15.666;2023-01-16T11:28:32;96782.06;;;1.34;100.00
55217;BME280;41086;46.736;15.666;2023-01-16T11:31:07;96773.13;;;1.08;100.00
55217;BME280;41086;46.736;15.666;2023-01-16T11:33:41;96755.03;;;0.91;100.00
55217;BME280;41086;46.736;15.666;2023-01-16T11:36:15;96725.59;;;0.73;100.00
55217;BME280;41086;46.736;15.666;2023-01-16T11:38:44;96743.03;;;0.72;100.00
55217;BME280;41086;46.736;15.666;2023-01-16T11:41:17;96733.13;;;0.63;100.00
55217;BME280;41086;46.736;15.666;2023-01-16T11:44:03;96714.13;;;0.61;100.00
55217;BME280;41086;46.736;15.666;2023-01-16T11:46:50;96713.19;;;0.62;100.00
55217;BME280;41086;46.736;15.666;2023-01-16T11:49:49;96708.41;;;0.54;100.00
55217;BME280;41086;46.736;15.666;2023-01-16T11:52:21;96672.25;;;0.48;100.00
55217;BME280;41086;46.736;15.666;2023-01-16T11:55:00;96690.03;;;0.72;100.00
55217;BME280;41086;46.736;15.666;2023-01-16T12:00:28;96688.19;;;0.74;100.00
55217;BME280;41086;46.736;15.666;2023-01-16T12:03:08;96679.63;;;0.72;100.00
55217;BME280;41086;46.736;15.666;2023-01-16T12:06:06;96676.63;;;0.78;100.00
55217;BME280;41086;46.736;15.666;2023-01-16T12:09:00;96649.88;;;0.60;100.00
55217;BME280;41086;46.736;15.666;2023-01-16T12:14:21;96648.47;;;0.84;100.00
55217;BME280;41086;46.736;15.666;2023-01-16T12:32:53;96619.28;;;0.92;100.00
55217;BME280;41086;46.736;15.666;2023-01-16T12:35:31;96602.16;;;0.88;100.00
55217;BME280;41086;46.736;15.666;2023-01-16T12:38:13;96577.84;;;1.02;100.00
55217;BME280;41086;46.736;15.666;2023-01-16T12:41:00;96608.69;;;1.24;100.00
55217;BME280;41086;46.736;15.666;2023-01-16T12:52:09;96606.84;;;1.82;100.00
55217;BME280;41086;46.736;15.666;2023-01-16T13:00:29;96603.38;;;1.81;100.00
55217;BME280;41086;46.736;15.666;2023-01-16T13:03:26;96592.06;;;1.53;100.00
55217;BME280;41086;46.736;15.666;2023-01-16T13:05:56;96590.75;;;1.46;100.00
55217;BME280;41086;46.736;15.666;2023-01-16T13:11:01;96571.66;;;1.46;100.00
55217;BME280;41086;46.736;15.666;2023-01-16T13:13:56;96571.06;;;1.69;100.00
55217;BME280;41086;46.736;15.666;2023-01-16T13:16:37;96583.28;;;1.69;100.00
55217;BME280;41086;46.736;15.666;2023-01-16T13:19:23;96563.78;;;1.60;100.00
55217;BME280;41086;46.736;15.666;2023-01-16T13:22:05;96557.31;;;1.80;100.00
55217;BME280;41086;46.736;15.666;2023-01-16T13:24:53;96527.34;;;1.86;100.00
55217;BME280;41086;46.736;15.666;2023-01-16T13:27:31;96516.09;;;1.71;100.00
55217;BME280;41086;46.736;15.666;2023-01-16T13:30:06;96537.84;;;1.71;100.00
55217;BME280;41086;46.736;15.666;2023-01-16T13:32:41;96533.25;;;1.48;100.00
55217;BME280;41086;46.736;15.666;2023-01-16T13:35:15;96517.09;;;1.55;100.00
55217;BME280;41086;46.736;15.666;2023-01-16T13:43:18;96507.13;;;2.02;100.00
55217;BME280;41086;46.736;15.666;2023-01-16T13:46:19;96523.47;;;2.18;100.00
55217;BME280;41086;46.736;15.666;2023-01-16T13:48:51;96489.75;;;1.88;100.00
55217;BME280;41086;46.736;15.666;2023-01-16T13:51:21;96497.50;;;2.03;100.00
55217;BME280;41086;46.736;15.666;2023-01-16T13:53:54;96499.03;;;1.92;100.00
55217;BME280;41086;46.736;15.666;2023-01-16T13:56:23;96476.09;;;1.70;100.00
55217;BME280;41086;46.736;15.666;2023-01-16T13:59:04;96486.94;;;1.64;100.00
55217;BME280;41086;46.736;15.666;2023-01-16T14:06:48;96432.38;;;1.87;100.00
55217;BME280;41086;46.736;15.666;2023-01-16T14:09:20;96449.22;;;2.08;100.00
55217;BME280;41086;46.736;15.666;2023-01-16T14:14:46;96469.72;;;2.02;100.00
55217;BME280;41086;46.736;15.666;2023-01-16T14:26:20;96459.09;;;1.77;100.00
55217;BME280;41086;46.736;15.666;2023-01-16T14:28:49;96462.13;;;1.71;100.00
55217;BME280;41086;46.736;15.666;2023-01-16T14:31:24;96457.25;;;1.52;100.00
55217;BME280;41086;46.736;15.666;2023-01-16T14:33:54;96438.19;;;1.38;100.00
55217;BME280;41086;46.736;15.666;2023-01-16T14:36:25;96426.81;;;1.12;100.00
55217;BME280;41086;46.736;15.666;2023-01-16T14:38:53;96443.00;;;1.17;100.00
55217;BME280;41086;46.736;15.666;2023-01-16T14:41:28;96436.94;;;1.16;100.00
55217;BME280;41086;46.736;15.666;2023-01-16T14:44:20;96420.59;;;1.27;100.00
55217;BME280;41086;46.736;15.666;2023-01-16T14:50:15;96391.94;;;1.40;100.00
55217;BME280;41086;46.736;15.666;2023-01-16T14:56:04;96403.69;;;1.47;100.00
55217;BME280;41086;46.736;15.666;2023-01-16T14:58:39;96403.56;;;1.48;100.00
55217;BME280;41086;46.736;15.666;2023-01-16T15:01:26;96391.94;;;1.40;100.00
55217;BME280;41086;46.736;15.666;2023-01-16T15:04:19;96399.38;;;1.46;100.00
55217;BME280;41086;46.736;15.666;2023-01-16T15:06:54;96397.38;;;1.37;100.00
55217;BME280;41086;46.736;15.666;2023-01-16T15:09:27;96403.91;;;1.29;100.00
55217;BME280;41086;46.736;15.666;2023-01-16T15:12:00;96402.44;;;1.25;100.00
55217;BME280;41086;46.736;15.666;2023-01-16T15:14:28;96382.28;;;1.27;100.00
55217;BME280;41086;46.736;15.666;2023-01-16T15:23:01;96372.38;;;1.20;100.00
55217;BME280;41086;46.736;15.666;2023-01-16T15:34:18;96347.00;;;0.95;100.00
55217;BME280;41086;46.736;15.666;2023-01-16T15:36:50;96355.16;;;1.03;100.00
55217;BME280;41086;46.736;15.666;2023-01-16T15:39:37;96357.50;;;1.07;100.00
55217;BME280;41086;46.736;15.666;2023-01-16T15:42:24;96348.50;;;0.99;100.00
55217;BME280;41086;46.736;15.666;2023-01-16T15:45:23;96344.59;;;0.92;100.00